sensor_id;sensor_type;location;lat;lon;timestamp;pressure;altitude;pressure_sealevel;temperature;humidity
7990;BME280;4040;42.848;23.034;2024-03-08T00:01:45;94922.28;;;5.27;100.00
7990;BME280;4040;42.848;23.034;2024-03-08T00:04:13;94922.94;;;5.17;100.00
7990;BME280;4040;42.848;23.034;2024-03-08T00:06:41;94922.19;;;5.16;100.00
7990;BME280;4040;42.848;23.034;2024-03-08T00:09:09;94926.78;;;5.19;100.00
7990;BME280;4040;42.848;23.034;2024-03-08T00:11:38;94917.75;;;5.31;100.00
7990;BME280;4040;42.848;23.034;2024-03-08T00:14:05;94923.84;;;5.31;100.00
7990;BME280;4040;42.848;23.034;2024-03-08T00:16:33;94864.84;;;5.07;100.00
7990;BME280;4040;42.848;23.034;2024-03-08T00:19:01;94914.06;;;5.42;100.00
7990;BME280;4040;42.848;23.034;2024-03-08T00:21:28;94920.59;;;5.45;100.00
7990;BME280;4040;42.848;23.034;2024-03-08T00:23:55;94923.84;;;5.31;100.00
7990;BME280;4040;42.848;23.034;2024-03-08T00:26:23;94919.16;;;5.21;100.00
7990;BME280;4040;42.848;23.034;2024-03-08T00:28:51;94923.78;;;5.24;100.00
7990;BME280;4040;42.848;23.034;2024-03-08T00:31:19;94931.19;;;5.38;100.00
7990;BME280;4040;42.848;23.034;2024-03-08T00:33:47;94929.59;;;5.33;100.00
7990;BME280;4040;42.848;23.034;2024-03-08T00:36:14;94925.97;;;5.48;100.00
7990;BME280;4040;42.848;23.034;2024-03-08T00:38:41;94924.56;;;5.61;100.00
7990;BME280;4040;42.848;23.034;2024-03-08T00:41:09;94907.66;;;5.50;100.00
7990;BME280;4040;42.848;23.034;2024-03-08T00:43:36;94909.59;;;5.53;100.00
7990;BME280;4040;42.848;23.034;2024-03-08T00:46:05;94923.00;;;5.57;100.00
7990;BME280;4040;42.848;23.034;2024-03-08T00:48:33;94911.97;;;5.58;100.00
7990;BME280;4040;42.848;23.034;2024-03-08T00:51:04;94919.88;;;5.51;100.00
7990;BME280;4040;42.848;23.034;2024-03-08T00:53:31;94908.84;;;5.53;100.00
7990;BME280;4040;42.848;23.034;2024-03-08T00:55:59;94916.47;;;5.54;100.00
7990;BME280;4040;42.848;23.034;2024-03-08T00:58:26;94911.97;;;5.58;100.00
7990;BME280;4040;42.848;23.034;2024-03-08T01:00:54;94915.03;;;5.60;100.00
7990;BME280;4040;42.848;23.034;2024-03-08T01:03:24;94913.63;;;5.73;100.00
7990;BME280;4040;42.848;23.034;2024-03-08T01:05:51;94915.94;;;5.78;100.00
7990;BME280;4040;42.848;23.034;2024-03-08T01:08:19;94907.84;;;5.68;100.00
7990;BME280;4040;42.848;23.034;2024-03-08T01:10:46;94907.94;;;5.38;100.00
7990;BME280;4040;42.848;23.034;2024-03-08T01:13:13;94904.50;;;5.41;100.00
7990;BME280;4040;42.848;23.034;2024-03-08T01:15:41;94897.00;;;5.17;100.00
7990;BME280;4040;42.848;23.034;2024-03-08T01:18:08;94890.94;;;5.20;100.00
7990;BME280;4040;42.848;23.034;2024-03-08T01:20:37;94884.59;;;5.35;100.00
7990;BME280;4040;42.848;23.034;2024-03-08T01:23:05;94882.00;;;5.42;100.00
7990;BME280;4040;42.848;23.034;2024-03-08T01:25:33;94872.94;;;5.50;100.00
7990;BME280;4040;42.848;23.034;2024-03-08T01:28:00;94872.94;;;5.50;100.00
7990;BME280;4040;42.848;23.034;2024-03-08T01:30:28;94869.19;;;5.55;100.00
7990;BME280;4040;42.848;23.034;2024-03-08T01:32:55;94865.41;;;5.59;100.00
7990;BME280;4040;42.848;23.034;2024-03-08T01:35:23;94864.69;;;5.66;100.00
7990;BME280;4040;42.848;23.034;2024-03-08T01:37:53;94866.16;;;5.60;100.00
7990;BME280;4040;42.848;23.034;2024-03-08T01:40:21;94828.50;;;5.32;100.00
7990;BME280;4040;42.848;23.034;2024-03-08T01:42:48;94863.78;;;5.51;100.00
7990;BME280;4040;42.848;23.034;2024-03-08T01:45:16;94856.91;;;5.50;100.00
7990;BME280;4040;42.848;23.034;2024-03-08T01:47:43;94855.44;;;5.53;100.00
7990;BME280;4040;42.848;23.034;2024-03-08T01:50:13;94852.28;;;5.47;100.00
7990;BME280;4040;42.848;23.034;2024-03-08T01:52:42;94843.84;;;5.38;100.00
7990;BME280;4040;42.848;23.034;2024-03-08T01:55:11;94844.97;;;5.37;100.00
7990;BME280;4040;42.848;23.034;2024-03-08T01:57:40;94840.78;;;5.40;100.00
7990;BME280;4040;42.848;23.034;2024-03-08T02:00:08;94836.22;;;5.40;100.00
7990;BME280;4040;42.848;23.034;2024-03-08T02:02:37;94838.63;;;5.52;100.00
7990;BME280;4040;42.848;23.034;2024-03-08T02:05:06;94832.56;;;5.59;100.00
7990;BME280;4040;42.848;23.034;2024-03-08T02:07:34;94838.53;;;5.45;100.00
7990;BME280;4040;42.848;23.034;2024-03-08T02:10:02;94818.47;;;5.18;100.00
7990;BME280;4040;42.848;23.034;2024-03-08T02:12:31;94824.63;;;5.26;100.00
7990;BME280;4040;42.848;23.034;2024-03-08T02:14:59;94821.34;;;5.39;100.00
7990;BME280;4040;42.848;23.034;2024-03-08T02:17:26;94823.13;;;5.28;100.00
7990;BME280;4040;42.848;23.034;2024-03-08T02:19:54;94817.13;;;5.38;100.00
7990;BME280;4040;42.848;23.034;2024-03-08T02:22:23;94748.84;;;4.97;100.00
7990;BME280;4040;42.848;23.034;2024-03-08T02:24:51;94809.84;;;5.35;100.00
7990;BME280;4040;42.848;23.034;2024-03-08T02:27:23;94816.47;;;5.48;100.00
7990;BME280;4040;42.848;23.034;2024-03-08T02:29:52;94809.53;;;5.44;100.00
7990;BME280;4040;42.848;23.034;2024-03-08T02:32:22;94808.81;;;5.47;100.00
7990;BME280;4040;42.848;23.034;2024-03-08T02:34:49;94812.56;;;5.42;100.00
7990;BME280;4040;42.848;23.034;2024-03-08T02:37:17;94814.19;;;5.50;100.00
7990;BME280;4040;42.848;23.034;2024-03-08T02:39:46;94806.84;;;5.40;100.00
7990;BME280;4040;42.848;23.034;2024-03-08T02:42:13;94802.72;;;5.50;100.00
7990;BME280;4040;42.848;23.034;2024-03-08T02:44:42;94797.31;;;5.39;100.00
7990;BME280;4040;42.848;23.034;2024-03-08T02:47:10;94793.84;;;5.39;100.00
7990;BME280;4040;42.848;23.034;2024-03-08T02:49:38;94790.44;;;5.38;100.00
7990;BME280;4040;42.848;23.034;2024-03-08T02:52:06;94788.84;;;5.34;100.00
7990;BME280;4040;42.848;23.034;2024-03-08T02:54:33;94795.38;;;5.40;100.00
7990;BME280;4040;42.848;23.034;2024-03-08T02:57:04;94801.91;;;5.42;100.00
7990;BME280;4040;42.848;23.034;2024-03-08T02:59:33;94804.22;;;5.47;100.00
7990;BME280;4040;42.848;23.034;2024-03-08T03:02:01;94825.59;;;5.47;100.00
7990;BME280;4040;42.848;23.034;2024-03-08T03:04:28;94803.97;;;5.19;100.00
7990;BME280;4040;42.848;23.034;2024-03-08T03:06:56;94859.13;;;5.41;100.00
7990;BME280;4040;42.848;23.034;2024-03-08T03:09:23;94873.59;;;5.40;100.00
7990;BME280;4040;42.848;23.034;2024-03-08T03:11:53;94881.97;;;5.39;100.00
7990;BME280;4040;42.848;23.034;2024-03-08T03:14:23;94890.28;;;5.30;100.00
7990;BME280;4040;42.848;23.034;2024-03-08T03:16:52;94897.94;;;5.35;100.00
7990;BME280;4040;42.848;23.034;2024-03-08T03:19:20;94886.78;;;5.26;100.00
7990;BME280;4040;42.848;23.034;2024-03-08T03:21:47;94894.84;;;5.30;100.00
7990;BME280;4040;42.848;23.034;2024-03-08T03:24:14;94897.94;;;5.35;100.00
7990;BME280;4040;42.848;23.034;2024-03-08T03:26:42;94785.81;;;4.63;100.00
7990;BME280;4040;42.848;23.034;2024-03-08T03:29:09;94900.09;;;5.19;100.00
7990;BME280;4040;42.848;23.034;2024-03-08T04:30:53;94795.53;;;3.89;100.00
7990;BME280;4040;42.848;23.034;2024-03-08T04:33:21;94797.97;;;4.01;100.00
7990;BME280;4040;42.848;23.034;2024-03-08T04:35:49;94795.75;;;4.07;100.00
7990;BME280;4040;42.848;23.034;2024-03-08T04:38:17;94803.44;;;4.12;100.00
7990;BME280;4040;42.848;23.034;2024-03-08T04:40:44;94803.34;;;4.05;100.00
7990;BME280;4040;42.848;23.034;2024-03-08T04:43:12;94808.66;;;3.79;100.00
7990;BME280;4040;42.848;23.034;2024-03-08T04:45:40;94799.47;;;3.73;100.00
7990;BME280;4040;42.848;23.034;2024-03-08T04:48:11;94823.50;;;3.80;100.00
7990;BME280;4040;42.848;23.034;2024-03-08T04:50:38;94836.75;;;3.99;100.00
7990;BME280;4040;42.848;23.034;2024-03-08T04:53:06;94865.84;;;3.85;100.00
7990;BME280;4040;42.848;23.034;2024-03-08T04:55:34;94874.66;;;3.89;100.00
7990;BME280;4040;42.848;23.034;2024-03-08T04:58:01;94892.91;;;3.87;100.00
7990;BME280;4040;42.848;23.034;2024-03-08T05:00:31;94915.69;;;3.84;100.00
7990;BME280;4040;42.848;23.034;2024-03-08T05:02:58;94935.66;;;3.94;100.00
7990;BME280;4040;42.848;23.034;2024-03-08T05:05:27;94955.34;;;3.89;100.00
7990;BME280;4040;42.848;23.034;2024-03-08T05:07:56;94947.00;;;3.91;100.00
7990;BME280;4040;42.848;23.034;2024-03-08T05:10:23;94960.44;;;3.98;100.00
7990;BME280;4040;42.848;23.034;2024-03-08T05:12:50;94963.03;;;4.17;100.00
7990;BME280;4040;42.848;23.034;2024-03-08T05:15:18;94981.78;;;4.20;100.00
7990;BME280;4040;42.848;23.034;2024-03-08T05:17:46;94985.78;;;4.11;100.00
7990;BME280;4040;42.848;23.034;2024-03-08T05:20:14;94987.31;;;4.12;100.00
7990;BME280;4040;42.848;23.034;2024-03-08T05:22:44;94999.94;;;4.15;100.00
7990;BME280;4040;42.848;23.034;2024-03-08T05:25:12;94997.69;;;4.17;100.00
7990;BME280;4040;42.848;23.034;2024-03-08T05:27:40;95003.97;;;4.28;100.00
7990;BME280;4040;42.848;23.034;2024-03-08T05:30:08;95007.63;;;4.20;100.00
7990;BME280;4040;42.848;23.034;2024-03-08T05:32:40;95018.19;;;4.13;100.00
7990;BME280;4040;42.848;23.034;2024-03-08T05:35:10;95024.50;;;4.27;100.00
7990;BME280;4040;42.848;23.034;2024-03-08T05:37:38;95028.97;;;4.20;100.00
7990;BME280;4040;42.848;23.034;2024-03-08T05:40:08;95036.56;;;4.18;100.00
7990;BME280;4040;42.848;23.034;2024-03-08T05:42:36;95036.69;;;4.25;100.00
7990;BME280;4040;42.848;23.034;2024-03-08T05:45:04;95031.44;;;4.32;100.00
7990;BME280;4040;42.848;23.034;2024-03-08T05:47:32;95043.56;;;4.26;100.00
7990;BME280;4040;42.848;23.034;2024-03-08T05:50:00;95042.22;;;4.16;100.00
7990;BME280;4040;42.848;23.034;2024-03-08T05:52:27;95051.53;;;4.26;100.00
7990;BME280;4040;42.848;23.034;2024-03-08T05:54:55;95052.41;;;4.11;100.00
7990;BME280;4040;42.848;23.034;2024-03-08T05:57:23;95060.88;;;4.16;100.00
7990;BME280;4040;42.848;23.034;2024-03-08T05:59:51;95058.66;;;4.18;100.00
7990;BME280;4040;42.848;23.034;2024-03-08T06:02:18;95067.53;;;4.26;100.00
7990;BME280;4040;42.848;23.034;2024-03-08T06:04:46;95070.75;;;4.35;100.00
7990;BME280;4040;42.848;23.034;2024-03-08T06:07:14;95072.69;;;4.38;100.00
7990;BME280;4040;42.848;23.034;2024-03-08T06:09:43;95081.16;;;4.21;100.00
7990;BME280;4040;42.848;23.034;2024-03-08T06:12:12;95065.59;;;4.23;100.00
7990;BME280;4040;42.848;23.034;2024-03-08T06:14:46;95074.66;;;4.41;100.00
7990;BME280;4040;42.848;23.034;2024-03-08T06:17:13;95080.53;;;4.50;100.00
7990;BME280;4040;42.848;23.034;2024-03-08T06:19:40;95087.28;;;4.44;100.00
7990;BME280;4040;42.848;23.034;2024-03-08T06:22:08;95074.59;;;4.60;100.00
7990;BME280;4040;42.848;23.034;2024-03-08T06:24:36;95083.25;;;4.76;100.00
7990;BME280;4040;42.848;23.034;2024-03-08T06:27:04;95087.13;;;4.82;100.00
7990;BME280;4040;42.848;23.034;2024-03-08T06:29:31;95086.53;;;4.91;100.00
7990;BME280;4040;42.848;23.034;2024-03-08T06:32:00;95088.13;;;4.96;100.00
7990;BME280;4040;42.848;23.034;2024-03-08T06:34:28;95087.56;;;5.09;100.00
7990;BME280;4040;42.848;23.034;2024-03-08T06:36:55;95085.94;;;5.01;100.00
7990;BME280;4040;42.848;23.034;2024-03-08T06:39:26;95090.78;;;4.70;100.00
7990;BME280;4040;42.848;23.034;2024-03-08T06:41:55;95088.94;;;5.00;100.00
7990;BME280;4040;42.848;23.034;2024-03-08T06:44:23;95086.09;;;5.12;100.00
7990;BME280;4040;42.848;23.034;2024-03-08T06:46:51;95093.03;;;5.16;100.00
7990;BME280;4040;42.848;23.034;2024-03-08T06:49:20;95091.97;;;5.24;100.00
7990;BME280;4040;42.848;23.034;2024-03-08T06:51:47;95084.88;;;5.35;100.00
7990;BME280;4040;42.848;23.034;2024-03-08T06:54:15;95090.00;;;5.47;100.00
7990;BME280;4040;42.848;23.034;2024-03-08T06:56:42;95091.69;;;5.85;100.00
7990;BME280;4040;42.848;23.034;2024-03-08T06:59:09;95100.22;;;5.97;100.00
7990;BME280;4040;42.848;23.034;2024-03-08T07:01:37;95108.56;;;6.25;100.00
7990;BME280;4040;42.848;23.034;2024-03-08T07:04:04;95105.31;;;6.42;100.00
7990;BME280;4040;42.848;23.034;2024-03-08T07:06:33;95109.66;;;6.57;100.00
7990;BME280;4040;42.848;23.034;2024-03-08T07:09:02;94980.75;;;5.68;100.00
7990;BME280;4040;42.848;23.034;2024-03-08T07:11:30;95111.69;;;6.71;100.00
7990;BME280;4040;42.848;23.034;2024-03-08T07:13:57;95113.94;;;6.65;100.00
7990;BME280;4040;42.848;23.034;2024-03-08T07:16:29;95114.09;;;6.83;100.00
7990;BME280;4040;42.848;23.034;2024-03-08T07:18:57;95113.06;;;6.94;100.00
7990;BME280;4040;42.848;23.034;2024-03-08T07:21:24;95110.59;;;7.26;100.00
7990;BME280;4040;42.848;23.034;2024-03-08T07:23:53;95118.88;;;7.07;100.00
7990;BME280;4040;42.848;23.034;2024-03-08T07:26:39;95117.97;;;6.89;100.00
7990;BME280;4040;42.848;23.034;2024-03-08T07:29:06;95105.69;;;6.88;100.00
7990;BME280;4040;42.848;23.034;2024-03-08T07:31:34;95116.69;;;7.19;100.00
7990;BME280;4040;42.848;23.034;2024-03-08T07:34:11;95105.66;;;7.31;100.00
7990;BME280;4040;42.848;23.034;2024-03-08T07:36:38;95108.41;;;7.38;100.00
7990;BME280;4040;42.848;23.034;2024-03-08T07:39:07;95116.19;;;7.64;100.00
7990;BME280;4040;42.848;23.034;2024-03-08T07:41:37;95117.00;;;7.68;100.00
7990;BME280;4040;42.848;23.034;2024-03-08T07:44:05;95114.38;;;7.78;100.00
7990;BME280;4040;42.848;23.034;2024-03-08T07:46:33;95114.84;;;7.98;100.00
7990;BME280;4040;42.848;23.034;2024-03-08T07:49:01;95056.03;;;7.51;100.00
7990;BME280;4040;42.848;23.034;2024-03-08T07:51:28;95112.19;;;7.98;100.00
7990;BME280;4040;42.848;23.034;2024-03-08T07:53:56;95112.56;;;8.07;100.00
7990;BME280;4040;42.848;23.034;2024-03-08T07:56:25;95114.97;;;8.19;100.00
7990;BME280;4040;42.848;23.034;2024-03-08T07:58:52;95113.19;;;7.76;100.00
7990;BME280;4040;42.848;23.034;2024-03-08T08:01:22;95044.00;;;7.24;100.00
7990;BME280;4040;42.848;23.034;2024-03-08T08:03:50;95111.63;;;7.64;100.00
7990;BME280;4040;42.848;23.034;2024-03-08T08:06:18;95086.97;;;7.45;100.00
7990;BME280;4040;42.848;23.034;2024-03-08T08:08:51;95110.50;;;7.76;100.00
7990;BME280;4040;42.848;23.034;2024-03-08T08:11:19;95084.75;;;7.54;100.00
7990;BME280;4040;42.848;23.034;2024-03-08T08:13:51;95109.66;;;7.58;100.00
7990;BME280;4040;42.848;23.034;2024-03-08T08:16:26;95098.63;;;7.70;100.00
7990;BME280;4040;42.848;23.034;2024-03-08T08:18:54;95110.16;;;7.81;100.00
7990;BME280;4040;42.848;23.034;2024-03-08T08:21:21;95107.19;;;7.96;100.00
7990;BME280;4040;42.848;23.034;2024-03-08T08:23:50;95103.38;;;8.01;100.00
7990;BME280;4040;42.848;23.034;2024-03-08T08:26:21;95112.69;;;8.21;100.00
7990;BME280;4040;42.848;23.034;2024-03-08T08:29:04;95111.75;;;7.96;100.00
7990;BME280;4040;42.848;23.034;2024-03-08T08:31:32;95110.94;;;7.81;100.00
7990;BME280;4040;42.848;23.034;2024-03-08T08:34:00;95113.19;;;7.76;100.00
7990;BME280;4040;42.848;23.034;2024-03-08T08:36:28;95084.63;;;7.33;100.00
7990;BME280;4040;42.848;23.034;2024-03-08T08:38:57;95122.13;;;7.33;100.00
7990;BME280;4040;42.848;23.034;2024-03-08T08:41:25;95032.97;;;6.75;100.00
7990;BME280;4040;42.848;23.034;2024-03-08T08:43:54;95078.47;;;7.29;100.00
7990;BME280;4040;42.848;23.034;2024-03-08T08:46:21;95107.13;;;7.89;100.00
7990;BME280;4040;42.848;23.034;2024-03-08T08:48:52;95108.72;;;8.01;100.00
7990;BME280;4040;42.848;23.034;2024-03-08T08:51:19;95104.94;;;8.16;100.00
7990;BME280;4040;42.848;23.034;2024-03-08T08:53:48;95103.47;;;8.29;100.00
7990;BME280;4040;42.848;23.034;2024-03-08T08:56:16;95099.72;;;8.58;100.00
7990;BME280;4040;42.848;23.034;2024-03-08T08:58:44;95099.00;;;9.24;100.00
7990;BME280;4040;42.848;23.034;2024-03-08T09:01:13;95093.63;;;9.31;100.00
7990;BME280;4040;42.848;23.034;2024-03-08T09:03:44;95092.88;;;9.30;100.00
7990;BME280;4040;42.848;23.034;2024-03-08T09:06:14;95093.56;;;9.59;100.00
7990;BME280;4040;42.848;23.034;2024-03-08T09:08:47;95093.88;;;9.89;100.00
7990;BME280;4040;42.848;23.034;2024-03-08T09:11:14;95090.47;;;9.74;100.00
7990;BME280;4040;42.848;23.034;2024-03-08T09:13:44;95086.66;;;9.61;100.00
7990;BME280;4040;42.848;23.034;2024-03-08T09:16:18;95003.81;;;9.18;100.00
7990;BME280;4040;42.848;23.034;2024-03-08T09:18:48;95092.31;;;10.01;100.00
7990;BME280;4040;42.848;23.034;2024-03-08T09:21:19;95097.88;;;10.45;100.00
7990;BME280;4040;42.848;23.034;2024-03-08T09:23:47;95087.97;;;10.93;100.00
7990;BME280;4040;42.848;23.034;2024-03-08T09:26:21;95070.22;;;10.41;100.00
7990;BME280;4040;42.848;23.034;2024-03-08T09:28:52;95090.78;;;10.79;100.00
7990;BME280;4040;42.848;23.034;2024-03-08T09:31:23;95094.53;;;10.92;100.00
7990;BME280;4040;42.848;23.034;2024-03-08T09:33:51;95090.03;;;11.23;100.00
7990;BME280;4040;42.848;23.034;2024-03-08T09:36:21;95094.13;;;11.41;91.18
7990;BME280;4040;42.848;23.034;2024-03-08T09:38:52;95091.84;;;11.36;91.29
7990;BME280;4040;42.848;23.034;2024-03-08T09:41:23;95084.91;;;11.39;91.47
7990;BME280;4040;42.848;23.034;2024-03-08T09:43:51;95078.19;;;11.13;92.90
7990;BME280;4040;42.848;23.034;2024-03-08T09:46:21;95067.16;;;10.97;87.51
7990;BME280;4040;42.848;23.034;2024-03-08T09:48:49;95058.28;;;11.00;89.92
7990;BME280;4040;42.848;23.034;2024-03-08T09:51:17;95068.31;;;10.96;82.44
7990;BME280;4040;42.848;23.034;2024-03-08T09:53:48;95078.53;;;10.68;87.93
7990;BME280;4040;42.848;23.034;2024-03-08T09:56:16;95092.94;;;10.95;84.79
7990;BME280;4040;42.848;23.034;2024-03-08T09:58:44;95056.19;;;10.67;84.35
7990;BME280;4040;42.848;23.034;2024-03-08T10:01:47;95098.44;;;10.84;83.38
7990;BME280;4040;42.848;23.034;2024-03-08T10:04:15;95075.34;;;10.83;83.12
7990;BME280;4040;42.848;23.034;2024-03-08T10:06:43;95080.22;;;11.02;86.38
7990;BME280;4040;42.848;23.034;2024-03-08T10:09:15;95077.72;;;11.25;83.18
7990;BME280;4040;42.848;23.034;2024-03-08T10:11:46;95100.50;;;11.17;79.55
7990;BME280;4040;42.848;23.034;2024-03-08T10:14:15;95092.75;;;11.19;82.41
7990;BME280;4040;42.848;23.034;2024-03-08T10:16:43;95032.69;;;11.22;86.06
7990;BME280;4040;42.848;23.034;2024-03-08T10:19:17;95115.47;;;11.69;82.52
7990;BME280;4040;42.848;23.034;2024-03-08T10:21:48;95100.56;;;11.95;80.45
7990;BME280;4040;42.848;23.034;2024-03-08T10:24:20;95066.81;;;12.10;76.11
7990;BME280;4040;42.848;23.034;2024-03-08T10:26:47;95093.91;;;12.36;69.54
7990;BME280;4040;42.848;23.034;2024-03-08T10:29:20;95098.84;;;12.41;69.02
7990;BME280;4040;42.848;23.034;2024-03-08T10:31:48;95066.19;;;12.29;68.92
7990;BME280;4040;42.848;23.034;2024-03-08T10:34:21;95075.97;;;12.49;68.39
7990;BME280;4040;42.848;23.034;2024-03-08T10:37:07;95094.28;;;12.91;68.65
7990;BME280;4040;42.848;23.034;2024-03-08T10:39:38;95075.19;;;13.05;64.16
7990;BME280;4040;42.848;23.034;2024-03-08T10:42:14;95083.16;;;13.15;61.46
7990;BME280;4040;42.848;23.034;2024-03-08T10:44:53;95055.66;;;13.17;62.34
7990;BME280;4040;42.848;23.034;2024-03-08T10:47:27;95049.22;;;13.34;60.38
7990;BME280;4040;42.848;23.034;2024-03-08T10:50:05;95039.59;;;13.95;60.69
7990;BME280;4040;42.848;23.034;2024-03-08T10:52:38;95058.34;;;14.25;57.33
7990;BME280;4040;42.848;23.034;2024-03-08T10:55:24;95058.09;;;14.55;59.58
7990;BME280;4040;42.848;23.034;2024-03-08T10:57:53;95044.00;;;16.03;56.09
7990;BME280;4040;42.848;23.034;2024-03-08T11:00:21;95049.34;;;16.48;53.34
7990;BME280;4040;42.848;23.034;2024-03-08T11:03:04;95039.88;;;18.07;46.60
7990;BME280;4040;42.848;23.034;2024-03-08T11:05:37;95039.44;;;19.61;42.64
7990;BME280;4040;42.848;23.034;2024-03-08T11:08:19;95044.31;;;18.14;42.05
7990;BME280;4040;42.848;23.034;2024-03-08T11:10:48;95040.47;;;15.90;46.51
7990;BME280;4040;42.848;23.034;2024-03-08T11:13:36;95040.41;;;14.31;51.11
7990;BME280;4040;42.848;23.034;2024-03-08T11:16:07;95033.88;;;15.75;50.19
7990;BME280;4040;42.848;23.034;2024-03-08T11:18:35;95022.19;;;17.57;45.61
7990;BME280;4040;42.848;23.034;2024-03-08T11:21:06;95029.50;;;14.70;48.54
7990;BME280;4040;42.848;23.034;2024-03-08T11:23:38;95044.38;;;13.45;53.19
7990;BME280;4040;42.848;23.034;2024-03-08T11:26:17;95036.63;;;13.01;58.25
7990;BME280;4040;42.848;23.034;2024-03-08T11:28:46;95002.56;;;12.54;59.40
7990;BME280;4040;42.848;23.034;2024-03-08T11:31:24;95020.31;;;12.55;61.72
7990;BME280;4040;42.848;23.034;2024-03-08T11:33:52;95000.63;;;12.81;61.80
7990;BME280;4040;42.848;23.034;2024-03-08T11:36:25;95031.91;;;13.28;62.38
7990;BME280;4040;42.848;23.034;2024-03-08T11:38:53;94994.00;;;13.31;59.42
7990;BME280;4040;42.848;23.034;2024-03-08T11:41:22;95031.41;;;13.36;58.90
7990;BME280;4040;42.848;23.034;2024-03-08T11:44:03;95027.00;;;13.23;59.05
7990;BME280;4040;42.848;23.034;2024-03-08T11:46:35;95006.50;;;13.45;59.80
7990;BME280;4040;42.848;23.034;2024-03-08T11:49:11;95027.25;;;13.09;58.53
7990;BME280;4040;42.848;23.034;2024-03-08T11:51:41;95026.38;;;12.89;59.42
7990;BME280;4040;42.848;23.034;2024-03-08T11:54:11;95016.09;;;12.77;58.30
7990;BME280;4040;42.848;23.034;2024-03-08T11:56:39;94991.66;;;12.08;60.00
7990;BME280;4040;42.848;23.034;2024-03-08T11:59:11;94981.16;;;12.14;64.62
7990;BME280;4040;42.848;23.034;2024-03-08T12:01:43;94998.00;;;12.51;61.52
7990;BME280;4040;42.848;23.034;2024-03-08T12:04:12;94991.91;;;12.93;60.28
7990;BME280;4040;42.848;23.034;2024-03-08T12:06:41;95002.66;;;13.00;60.07
7990;BME280;4040;42.848;23.034;2024-03-08T12:09:11;95003.94;;;13.15;59.59
7990;BME280;4040;42.848;23.034;2024-03-08T12:11:40;95003.31;;;13.07;60.14
7990;BME280;4040;42.848;23.034;2024-03-08T12:14:08;94991.78;;;12.77;59.76
7990;BME280;4040;42.848;23.034;2024-03-08T12:16:36;94868.28;;;11.19;59.75
7990;BME280;4040;42.848;23.034;2024-03-08T12:19:08;95003.59;;;11.77;61.64
7990;BME280;4040;42.848;23.034;2024-03-08T12:21:36;94997.28;;;11.54;63.42
7990;BME280;4040;42.848;23.034;2024-03-08T12:24:06;94998.84;;;11.18;62.84
7990;BME280;4040;42.848;23.034;2024-03-08T12:26:36;94980.59;;;10.88;61.78
7990;BME280;4040;42.848;23.034;2024-03-08T12:29:21;94978.75;;;10.82;63.58
7990;BME280;4040;42.848;23.034;2024-03-08T12:31:54;94990.81;;;11.48;63.72
7990;BME280;4040;42.848;23.034;2024-03-08T12:34:24;94986.81;;;11.96;61.30
7990;BME280;4040;42.848;23.034;2024-03-08T12:36:58;94927.84;;;11.91;60.97
7990;BME280;4040;42.848;23.034;2024-03-08T12:39:30;94985.19;;;12.55;61.51
7990;BME280;4040;42.848;23.034;2024-03-08T12:41:59;94962.03;;;12.01;63.10
7990;BME280;4040;42.848;23.034;2024-03-08T12:44:26;94980.97;;;11.98;62.64
7990;BME280;4040;42.848;23.034;2024-03-08T12:46:54;94971.31;;;12.27;63.21
7990;BME280;4040;42.848;23.034;2024-03-08T12:49:24;94947.97;;;11.87;64.68
7990;BME280;4040;42.848;23.034;2024-03-08T12:51:55;94971.97;;;11.78;66.85
7990;BME280;4040;42.848;23.034;2024-03-08T12:54:25;94976.94;;;11.83;68.50
7990;BME280;4040;42.848;23.034;2024-03-08T12:56:58;94972.09;;;11.71;66.03
7990;BME280;4040;42.848;23.034;2024-03-08T12:59:25;94965.09;;;11.73;65.43
7990;BME280;4040;42.848;23.034;2024-03-08T13:01:56;94965.47;;;11.75;66.90
7990;BME280;4040;42.848;23.034;2024-03-08T13:04:25;94968.47;;;11.47;66.95
7990;BME280;4040;42.848;23.034;2024-03-08T13:06:53;94959.31;;;11.01;69.66
7990;BME280;4040;42.848;23.034;2024-03-08T13:09:21;94965.81;;;11.07;69.88
7990;BME280;4040;42.848;23.034;2024-03-08T13:11:49;94972.84;;;10.94;67.10
7990;BME280;4040;42.848;23.034;2024-03-08T13:14:18;94963.03;;;10.73;68.12
7990;BME280;4040;42.848;23.034;2024-03-08T13:19:36;94974.81;;;10.46;69.02
7990;BME280;4040;42.848;23.034;2024-03-08T13:22:04;94979.16;;;10.29;74.78
7990;BME280;4040;42.848;23.034;2024-03-08T13:24:32;94987.94;;;10.40;81.74
7990;BME280;4040;42.848;23.034;2024-03-08T13:27:00;94983.44;;;10.16;86.40
7990;BME280;4040;42.848;23.034;2024-03-08T13:29:27;94978.06;;;10.16;91.73
7990;BME280;4040;42.848;23.034;2024-03-08T13:31:55;94975.84;;;10.04;90.76
7990;BME280;4040;42.848;23.034;2024-03-08T13:34:26;94980.38;;;10.14;92.45
7990;BME280;4040;42.848;23.034;2024-03-08T13:36:57;94975.00;;;10.14;87.37
7990;BME280;4040;42.848;23.034;2024-03-08T13:39:26;94976.97;;;10.10;83.50
7990;BME280;4040;42.848;23.034;2024-03-08T13:41:55;94978.97;;;9.89;82.36
7990;BME280;4040;42.848;23.034;2024-03-08T13:44:22;94974.47;;;9.65;82.99
7990;BME280;4040;42.848;23.034;2024-03-08T13:46:51;94981.38;;;9.63;85.73
7990;BME280;4040;42.848;23.034;2024-03-08T13:49:18;94976.78;;;9.67;89.20
7990;BME280;4040;42.848;23.034;2024-03-08T13:51:46;94982.09;;;9.74;87.39
7990;BME280;4040;42.848;23.034;2024-03-08T13:54:16;94989.38;;;9.84;87.48
7990;BME280;4040;42.848;23.034;2024-03-08T13:56:43;94984.78;;;9.81;85.01
7990;BME280;4040;42.848;23.034;2024-03-08T13:59:12;94982.81;;;9.92;88.95
7990;BME280;4040;42.848;23.034;2024-03-08T14:01:39;94983.59;;;9.92;87.58
7990;BME280;4040;42.848;23.034;2024-03-08T14:04:06;94980.56;;;9.80;86.35
7990;BME280;4040;42.848;23.034;2024-03-08T14:06:35;94979.84;;;9.69;88.09
7990;BME280;4040;42.848;23.034;2024-03-08T14:09:02;94976.09;;;9.45;92.73
7990;BME280;4040;42.848;23.034;2024-03-08T14:11:35;94982.66;;;9.34;95.40
7990;BME280;4040;42.848;23.034;2024-03-08T14:14:02;94982.25;;;9.46;98.99
7990;BME280;4040;42.848;23.034;2024-03-08T14:16:30;94983.03;;;9.36;98.54
7990;BME280;4040;42.848;23.034;2024-03-08T14:18:57;94984.16;;;9.42;96.14
7990;BME280;4040;42.848;23.034;2024-03-08T14:21:29;94974.28;;;9.04;100.00
7990;BME280;4040;42.848;23.034;2024-03-08T14:23:56;94991.91;;;9.12;100.00
7990;BME280;4040;42.848;23.034;2024-03-08T14:26:24;94981.88;;;9.37;100.00